sensor_id;sensor_type;location;lat;lon;timestamp;P1;durP1;ratioP1;P2;durP2;ratioP2
50231;SDS011;36118;56.468;84.952;2022-10-16T00:03:46;19.90;;;8.73;;
50231;SDS011;36118;56.468;84.952;2022-10-16T00:08:50;19.53;;;8.83;;
50231;SDS011;36118;56.468;84.952;2022-10-16T00:13:57;21.08;;;8.73;;
50231;SDS011;36118;56.468;84.952;2022-10-16T00:19:02;18.00;;;8.70;;
50231;SDS011;36118;56.468;84.952;2022-10-16T00:24:06;22.63;;;9.15;;
50231;SDS011;36118;56.468;84.952;2022-10-16T00:29:11;27.35;;;8.77;;
50231;SDS011;36118;56.468;84.952;2022-10-16T00:34:14;18.65;;;8.25;;
50231;SDS011;36118;56.468;84.952;2022-10-16T00:39:17;22.48;;;9.48;;
50231;SDS011;36118;56.468;84.952;2022-10-16T00:49:46;43.17;;;10.70;;
50231;SDS011;36118;56.468;84.952;2022-10-16T00:54:49;31.67;;;10.15;;
50231;SDS011;36118;56.468;84.952;2022-10-16T00:59:53;30.15;;;11.00;;
50231;SDS011;36118;56.468;84.952;2022-10-16T01:04:56;36.47;;;10.68;;
50231;SDS011;36118;56.468;84.952;2022-10-16T01:10:06;40.60;;;12.30;;
50231;SDS011;36118;56.468;84.952;2022-10-16T01:15:36;37.78;;;12.20;;
50231;SDS011;36118;56.468;84.952;2022-10-16T01:31:25;27.38;;;10.63;;
50231;SDS011;36118;56.468;84.952;2022-10-16T01:36:32;32.95;;;11.40;;
50231;SDS011;36118;56.468;84.952;2022-10-16T01:41:45;41.97;;;11.93;;
50231;SDS011;36118;56.468;84.952;2022-10-16T01:46:51;42.65;;;12.70;;
50231;SDS011;36118;56.468;84.952;2022-10-16T01:51:55;35.90;;;12.63;;
50231;SDS011;36118;56.468;84.952;2022-10-16T01:56:59;38.07;;;13.13;;
50231;SDS011;36118;56.468;84.952;2022-10-16T02:02:04;36.33;;;14.38;;
50231;SDS011;36118;56.468;84.952;2022-10-16T02:07:08;38.50;;;13.82;;
50231;SDS011;36118;56.468;84.952;2022-10-16T02:12:28;36.15;;;13.38;;
50231;SDS011;36118;56.468;84.952;2022-10-16T02:17:35;36.47;;;15.13;;
50231;SDS011;36118;56.468;84.952;2022-10-16T02:22:39;43.35;;;15.57;;
50231;SDS011;36118;56.468;84.952;2022-10-16T02:32:53;39.92;;;15.13;;
50231;SDS011;36118;56.468;84.952;2022-10-16T02:37:57;36.93;;;14.77;;
50231;SDS011;36118;56.468;84.952;2022-10-16T02:43:02;34.03;;;12.82;;
50231;SDS011;36118;56.468;84.952;2022-10-16T02:48:06;33.45;;;13.52;;
50231;SDS011;36118;56.468;84.952;2022-10-16T02:53:09;31.85;;;12.93;;
50231;SDS011;36118;56.468;84.952;2022-10-16T02:58:12;35.75;;;16.15;;
50231;SDS011;36118;56.468;84.952;2022-10-16T03:03:14;39.10;;;17.00;;
50231;SDS011;36118;56.468;84.952;2022-10-16T03:08:17;42.83;;;17.90;;
50231;SDS011;36118;56.468;84.952;2022-10-16T03:13:25;40.00;;;17.70;;
50231;SDS011;36118;56.468;84.952;2022-10-16T03:18:28;34.90;;;12.82;;
50231;SDS011;36118;56.468;84.952;2022-10-16T03:23:30;33.15;;;12.38;;
50231;SDS011;36118;56.468;84.952;2022-10-16T03:28:33;29.23;;;12.20;;
50231;SDS011;36118;56.468;84.952;2022-10-16T03:33:36;28.13;;;12.30;;
50231;SDS011;36118;56.468;84.952;2022-10-16T03:38:39;24.15;;;10.35;;
50231;SDS011;36118;56.468;84.952;2022-10-16T03:43:41;23.75;;;10.07;;
50231;SDS011;36118;56.468;84.952;2022-10-16T03:48:44;31.92;;;10.90;;
50231;SDS011;36118;56.468;84.952;2022-10-16T03:53:47;29.05;;;9.48;;
50231;SDS011;36118;56.468;84.952;2022-10-16T03:58:50;20.45;;;9.02;;
50231;SDS011;36118;56.468;84.952;2022-10-16T04:03:53;24.05;;;9.45;;
50231;SDS011;36118;56.468;84.952;2022-10-16T04:08:55;22.20;;;10.07;;
50231;SDS011;36118;56.468;84.952;2022-10-16T04:13:58;23.25;;;9.82;;
50231;SDS011;36118;56.468;84.952;2022-10-16T04:19:02;23.45;;;9.20;;
50231;SDS011;36118;56.468;84.952;2022-10-16T04:24:05;21.38;;;10.07;;
50231;SDS011;36118;56.468;84.952;2022-10-16T04:29:07;22.60;;;9.05;;
50231;SDS011;36118;56.468;84.952;2022-10-16T04:34:10;23.23;;;9.88;;
50231;SDS011;36118;56.468;84.952;2022-10-16T04:39:13;22.35;;;9.82;;
50231;SDS011;36118;56.468;84.952;2022-10-16T04:44:16;30.95;;;10.52;;
50231;SDS011;36118;56.468;84.952;2022-10-16T04:49:18;19.20;;;9.50;;
50231;SDS011;36118;56.468;84.952;2022-10-16T04:54:21;20.73;;;9.27;;
50231;SDS011;36118;56.468;84.952;2022-10-16T04:59:24;24.00;;;9.65;;
50231;SDS011;36118;56.468;84.952;2022-10-16T05:04:26;23.58;;;10.50;;
50231;SDS011;36118;56.468;84.952;2022-10-16T05:09:29;25.13;;;10.65;;
50231;SDS011;36118;56.468;84.952;2022-10-16T05:14:32;21.60;;;9.27;;
50231;SDS011;36118;56.468;84.952;2022-10-16T05:19:35;21.35;;;9.32;;
50231;SDS011;36118;56.468;84.952;2022-10-16T05:24:37;20.10;;;8.88;;
50231;SDS011;36118;56.468;84.952;2022-10-16T05:29:40;27.88;;;9.68;;
50231;SDS011;36118;56.468;84.952;2022-10-16T05:34:43;22.05;;;8.82;;
50231;SDS011;36118;56.468;84.952;2022-10-16T05:39:47;21.55;;;9.35;;
50231;SDS011;36118;56.468;84.952;2022-10-16T05:44:49;19.52;;;8.40;;
50231;SDS011;36118;56.468;84.952;2022-10-16T05:49:52;22.08;;;8.80;;
50231;SDS011;36118;56.468;84.952;2022-10-16T05:54:55;22.13;;;8.50;;
50231;SDS011;36118;56.468;84.952;2022-10-16T05:59:58;14.98;;;7.80;;
50231;SDS011;36118;56.468;84.952;2022-10-16T06:05:00;15.63;;;7.80;;
50231;SDS011;36118;56.468;84.952;2022-10-16T06:10:04;17.67;;;7.45;;
50231;SDS011;36118;56.468;84.952;2022-10-16T06:15:07;15.13;;;7.70;;
50231;SDS011;36118;56.468;84.952;2022-10-16T06:20:11;16.30;;;7.82;;
50231;SDS011;36118;56.468;84.952;2022-10-16T06:25:14;15.13;;;8.02;;
50231;SDS011;36118;56.468;84.952;2022-10-16T06:30:17;14.70;;;7.70;;
50231;SDS011;36118;56.468;84.952;2022-10-16T06:35:19;15.05;;;7.57;;
50231;SDS011;36118;56.468;84.952;2022-10-16T06:40:22;13.02;;;7.53;;
50231;SDS011;36118;56.468;84.952;2022-10-16T06:45:25;16.40;;;7.75;;
50231;SDS011;36118;56.468;84.952;2022-10-16T06:50:27;17.63;;;7.68;;
50231;SDS011;36118;56.468;84.952;2022-10-16T06:55:30;15.77;;;7.63;;
50231;SDS011;36118;56.468;84.952;2022-10-16T07:00:33;16.30;;;8.00;;
50231;SDS011;36118;56.468;84.952;2022-10-16T07:05:39;20.25;;;7.50;;
50231;SDS011;36118;56.468;84.952;2022-10-16T07:10:42;14.63;;;7.03;;
50231;SDS011;36118;56.468;84.952;2022-10-16T07:15:45;15.70;;;7.28;;
50231;SDS011;36118;56.468;84.952;2022-10-16T07:20:47;13.93;;;7.22;;
50231;SDS011;36118;56.468;84.952;2022-10-16T07:25:53;22.15;;;8.25;;
50231;SDS011;36118;56.468;84.952;2022-10-16T07:31:04;22.80;;;8.40;;
50231;SDS011;36118;56.468;84.952;2022-10-16T07:36:08;18.92;;;8.35;;
50231;SDS011;36118;56.468;84.952;2022-10-16T07:41:18;13.98;;;7.93;;
50231;SDS011;36118;56.468;84.952;2022-10-16T07:46:22;12.68;;;7.13;;
50231;SDS011;36118;56.468;84.952;2022-10-16T07:51:25;15.70;;;7.57;;
50231;SDS011;36118;56.468;84.952;2022-10-16T07:56:28;13.35;;;7.55;;
50231;SDS011;36118;56.468;84.952;2022-10-16T08:01:32;17.13;;;8.02;;
50231;SDS011;36118;56.468;84.952;2022-10-16T08:06:36;19.65;;;8.57;;
50231;SDS011;36118;56.468;84.952;2022-10-16T08:11:40;17.73;;;8.00;;
50231;SDS011;36118;56.468;84.952;2022-10-16T08:16:42;19.00;;;9.50;;
50231;SDS011;36118;56.468;84.952;2022-10-16T08:21:48;17.50;;;8.93;;
50231;SDS011;36118;56.468;84.952;2022-10-16T08:26:52;23.02;;;10.50;;
50231;SDS011;36118;56.468;84.952;2022-10-16T08:36:59;19.60;;;10.75;;
50231;SDS011;36118;56.468;84.952;2022-10-16T08:42:05;18.65;;;10.43;;
50231;SDS011;36118;56.468;84.952;2022-10-16T08:52:49;22.65;;;10.60;;
50231;SDS011;36118;56.468;84.952;2022-10-16T08:57:52;14.68;;;9.20;;
50231;SDS011;36118;56.468;84.952;2022-10-16T09:03:04;17.67;;;9.88;;
50231;SDS011;36118;56.468;84.952;2022-10-16T09:08:09;19.20;;;9.50;;
50231;SDS011;36118;56.468;84.952;2022-10-16T09:23:39;19.20;;;9.88;;
50231;SDS011;36118;56.468;84.952;2022-10-16T09:28:42;19.23;;;9.52;;
50231;SDS011;36118;56.468;84.952;2022-10-16T09:33:47;18.67;;;10.02;;
50231;SDS011;36118;56.468;84.952;2022-10-16T09:39:05;21.67;;;10.35;;
50231;SDS011;36118;56.468;84.952;2022-10-16T09:44:16;23.80;;;11.43;;
50231;SDS011;36118;56.468;84.952;2022-10-16T09:49:26;19.38;;;10.65;;
50231;SDS011;36118;56.468;84.952;2022-10-16T09:54:29;28.00;;;10.20;;
50231;SDS011;36118;56.468;84.952;2022-10-16T09:59:31;23.58;;;11.02;;
50231;SDS011;36118;56.468;84.952;2022-10-16T10:04:48;19.40;;;10.65;;
50231;SDS011;36118;56.468;84.952;2022-10-16T10:09:53;19.67;;;11.07;;
50231;SDS011;36118;56.468;84.952;2022-10-16T10:14:58;21.50;;;11.20;;
50231;SDS011;36118;56.468;84.952;2022-10-16T10:20:22;20.67;;;11.25;;
50231;SDS011;36118;56.468;84.952;2022-10-16T10:30:56;21.33;;;11.10;;
50231;SDS011;36118;56.468;84.952;2022-10-16T10:57:20;32.22;;;12.18;;
50231;SDS011;36118;56.468;84.952;2022-10-16T11:08:26;25.55;;;10.70;;
50231;SDS011;36118;56.468;84.952;2022-10-16T11:24:20;24.38;;;10.77;;
50231;SDS011;36118;56.468;84.952;2022-10-16T11:29:27;35.90;;;12.70;;
50231;SDS011;36118;56.468;84.952;2022-10-16T11:34:34;27.20;;;12.13;;
50231;SDS011;36118;56.468;84.952;2022-10-16T11:39:38;36.13;;;12.77;;
50231;SDS011;36118;56.468;84.952;2022-10-16T11:44:51;30.38;;;11.52;;
50231;SDS011;36118;56.468;84.952;2022-10-16T11:50:05;24.45;;;12.23;;
50231;SDS011;36118;56.468;84.952;2022-10-16T11:55:24;28.05;;;12.82;;
50231;SDS011;36118;56.468;84.952;2022-10-16T12:05:50;40.03;;;15.65;;
50231;SDS011;36118;56.468;84.952;2022-10-16T12:11:05;43.30;;;18.23;;
50231;SDS011;36118;56.468;84.952;2022-10-16T12:16:28;44.03;;;17.80;;
50231;SDS011;36118;56.468;84.952;2022-10-16T12:21:31;46.67;;;18.13;;
50231;SDS011;36118;56.468;84.952;2022-10-16T12:26:37;38.65;;;17.40;;
50231;SDS011;36118;56.468;84.952;2022-10-16T12:31:44;39.17;;;16.83;;
50231;SDS011;36118;56.468;84.952;2022-10-16T12:37:07;34.25;;;16.65;;
50231;SDS011;36118;56.468;84.952;2022-10-16T12:52:36;48.25;;;19.25;;
50231;SDS011;36118;56.468;84.952;2022-10-16T13:03:02;54.50;;;19.75;;
50231;SDS011;36118;56.468;84.952;2022-10-16T13:08:48;50.63;;;19.40;;
50231;SDS011;36118;56.468;84.952;2022-10-16T13:19:30;46.72;;;19.48;;
50231;SDS011;36118;56.468;84.952;2022-10-16T13:24:58;59.15;;;20.83;;
50231;SDS011;36118;56.468;84.952;2022-10-16T13:30:18;60.80;;;32.05;;
50231;SDS011;36118;56.468;84.952;2022-10-16T13:35:31;64.35;;;20.98;;
50231;SDS011;36118;56.468;84.952;2022-10-16T13:40:35;56.97;;;19.33;;
50231;SDS011;36118;56.468;84.952;2022-10-16T13:45:41;68.35;;;20.73;;
50231;SDS011;36118;56.468;84.952;2022-10-16T13:50:48;75.38;;;24.60;;
50231;SDS011;36118;56.468;84.952;2022-10-16T13:56:05;76.70;;;27.33;;
50231;SDS011;36118;56.468;84.952;2022-10-16T14:06:33;82.50;;;32.10;;
50231;SDS011;36118;56.468;84.952;2022-10-16T14:11:42;140.38;;;26.45;;
50231;SDS011;36118;56.468;84.952;2022-10-16T14:16:50;112.28;;;27.52;;
50231;SDS011;36118;56.468;84.952;2022-10-16T14:21:53;87.30;;;28.95;;
50231;SDS011;36118;56.468;84.952;2022-10-16T14:26:56;98.95;;;30.20;;
50231;SDS011;36118;56.468;84.952;2022-10-16T14:32:00;143.48;;;45.40;;
50231;SDS011;36118;56.468;84.952;2022-10-16T14:37:24;169.77;;;79.57;;
50231;SDS011;36118;56.468;84.952;2022-10-16T14:42:29;173.07;;;45.85;;
50231;SDS011;36118;56.468;84.952;2022-10-16T14:47:33;176.75;;;39.30;;
50231;SDS011;36118;56.468;84.952;2022-10-16T14:52:35;154.98;;;37.65;;
50231;SDS011;36118;56.468;84.952;2022-10-16T14:57:38;135.13;;;41.85;;
50231;SDS011;36118;56.468;84.952;2022-10-16T15:02:41;171.65;;;41.35;;
50231;SDS011;36118;56.468;84.952;2022-10-16T15:07:45;146.10;;;43.53;;
50231;SDS011;36118;56.468;84.952;2022-10-16T15:12:48;167.38;;;44.95;;
50231;SDS011;36118;56.468;84.952;2022-10-16T15:17:52;164.57;;;44.60;;
50231;SDS011;36118;56.468;84.952;2022-10-16T15:22:58;144.88;;;50.75;;
50231;SDS011;36118;56.468;84.952;2022-10-16T15:28:01;169.15;;;53.55;;
50231;SDS011;36118;56.468;84.952;2022-10-16T15:33:05;147.55;;;52.00;;
50231;SDS011;36118;56.468;84.952;2022-10-16T15:38:17;76.25;;;37.08;;
50231;SDS011;36118;56.468;84.952;2022-10-16T15:43:21;75.17;;;35.40;;
50231;SDS011;36118;56.468;84.952;2022-10-16T15:48:24;71.78;;;32.90;;
50231;SDS011;36118;56.468;84.952;2022-10-16T15:53:27;62.55;;;29.55;;
50231;SDS011;36118;56.468;84.952;2022-10-16T15:58:29;55.10;;;30.10;;
50231;SDS011;36118;56.468;84.952;2022-10-16T16:03:32;52.08;;;27.75;;
50231;SDS011;36118;56.468;84.952;2022-10-16T16:08:35;50.35;;;26.33;;
50231;SDS011;36118;56.468;84.952;2022-10-16T16:13:39;49.08;;;26.35;;
50231;SDS011;36118;56.468;84.952;2022-10-16T16:18:42;45.83;;;26.20;;
50231;SDS011;36118;56.468;84.952;2022-10-16T16:23:45;46.65;;;25.65;;
50231;SDS011;36118;56.468;84.952;2022-10-16T16:28:48;49.40;;;27.85;;
50231;SDS011;36118;56.468;84.952;2022-10-16T16:33:51;51.13;;;27.75;;
50231;SDS011;36118;56.468;84.952;2022-10-16T16:38:54;51.10;;;27.60;;
50231;SDS011;36118;56.468;84.952;2022-10-16T16:44:04;54.58;;;29.05;;
50231;SDS011;36118;56.468;84.952;2022-10-16T16:49:08;48.00;;;27.58;;
50231;SDS011;36118;56.468;84.952;2022-10-16T16:54:12;51.80;;;30.87;;
50231;SDS011;36118;56.468;84.952;2022-10-16T16:59:17;64.63;;;30.88;;
50231;SDS011;36118;56.468;84.952;2022-10-16T17:04:25;43.90;;;24.95;;
50231;SDS011;36118;56.468;84.952;2022-10-16T17:09:28;43.33;;;23.70;;
50231;SDS011;36118;56.468;84.952;2022-10-16T17:14:31;47.45;;;24.15;;
50231;SDS011;36118;56.468;84.952;2022-10-16T17:19:34;48.28;;;23.73;;
50231;SDS011;36118;56.468;84.952;2022-10-16T17:24:37;41.25;;;21.83;;
50231;SDS011;36118;56.468;84.952;2022-10-16T17:29:39;38.88;;;22.52;;
50231;SDS011;36118;56.468;84.952;2022-10-16T17:34:42;40.85;;;22.50;;
50231;SDS011;36118;56.468;84.952;2022-10-16T17:39:45;42.58;;;22.77;;
50231;SDS011;36118;56.468;84.952;2022-10-16T17:44:48;46.50;;;24.20;;
50231;SDS011;36118;56.468;84.952;2022-10-16T17:49:51;40.92;;;23.58;;
50231;SDS011;36118;56.468;84.952;2022-10-16T17:54:53;38.30;;;22.17;;
50231;SDS011;36118;56.468;84.952;2022-10-16T17:59:57;36.53;;;20.13;;
50231;SDS011;36118;56.468;84.952;2022-10-16T18:05:00;39.40;;;20.55;;
50231;SDS011;36118;56.468;84.952;2022-10-16T18:10:07;35.50;;;19.58;;
50231;SDS011;36118;56.468;84.952;2022-10-16T18:15:12;33.00;;;19.08;;
50231;SDS011;36118;56.468;84.952;2022-10-16T18:20:15;33.72;;;19.00;;
50231;SDS011;36118;56.468;84.952;2022-10-16T18:25:18;34.83;;;19.70;;
50231;SDS011;36118;56.468;84.952;2022-10-16T18:30:21;42.85;;;21.30;;
50231;SDS011;36118;56.468;84.952;2022-10-16T18:35:24;38.75;;;21.15;;
50231;SDS011;36118;56.468;84.952;2022-10-16T18:40:27;36.40;;;20.85;;
50231;SDS011;36118;56.468;84.952;2022-10-16T18:45:30;36.35;;;20.73;;
50231;SDS011;36118;56.468;84.952;2022-10-16T18:50:32;33.20;;;19.20;;
50231;SDS011;36118;56.468;84.952;2022-10-16T18:55:35;34.88;;;18.80;;
50231;SDS011;36118;56.468;84.952;2022-10-16T19:00:38;40.25;;;19.55;;
50231;SDS011;36118;56.468;84.952;2022-10-16T19:05:41;35.33;;;17.90;;
50231;SDS011;36118;56.468;84.952;2022-10-16T19:10:47;33.92;;;17.25;;
50231;SDS011;36118;56.468;84.952;2022-10-16T19:15:50;38.45;;;17.73;;
50231;SDS011;36118;56.468;84.952;2022-10-16T19:21:04;37.23;;;17.10;;
50231;SDS011;36118;56.468;84.952;2022-10-16T19:26:14;28.92;;;16.05;;
50231;SDS011;36118;56.468;84.952;2022-10-16T19:31:19;30.73;;;15.57;;
50231;SDS011;36118;56.468;84.952;2022-10-16T19:36:24;27.65;;;14.20;;
50231;SDS011;36118;56.468;84.952;2022-10-16T19:41:28;35.87;;;14.83;;
50231;SDS011;36118;56.468;84.952;2022-10-16T19:46:31;30.77;;;13.77;;
50231;SDS011;36118;56.468;84.952;2022-10-16T19:51:35;26.17;;;14.27;;
50231;SDS011;36118;56.468;84.952;2022-10-16T19:56:38;29.73;;;15.30;;
50231;SDS011;36118;56.468;84.952;2022-10-16T20:01:41;30.38;;;15.43;;
50231;SDS011;36118;56.468;84.952;2022-10-16T20:06:44;30.42;;;16.42;;
50231;SDS011;36118;56.468;84.952;2022-10-16T20:11:47;34.15;;;16.88;;
50231;SDS011;36118;56.468;84.952;2022-10-16T20:16:50;31.15;;;15.85;;
50231;SDS011;36118;56.468;84.952;2022-10-16T20:21:54;31.17;;;15.38;;
50231;SDS011;36118;56.468;84.952;2022-10-16T20:26:57;35.97;;;17.23;;
50231;SDS011;36118;56.468;84.952;2022-10-16T20:32:01;34.78;;;16.98;;
50231;SDS011;36118;56.468;84.952;2022-10-16T20:37:04;41.25;;;16.80;;
50231;SDS011;36118;56.468;84.952;2022-10-16T20:42:07;36.65;;;17.63;;
50231;SDS011;36118;56.468;84.952;2022-10-16T20:47:10;29.95;;;16.52;;
50231;SDS011;36118;56.468;84.952;2022-10-16T20:52:12;33.13;;;16.27;;
50231;SDS011;36118;56.468;84.952;2022-10-16T20:57:15;30.42;;;15.88;;
50231;SDS011;36118;56.468;84.952;2022-10-16T21:02:18;33.13;;;16.83;;
50231;SDS011;36118;56.468;84.952;2022-10-16T21:07:20;36.05;;;15.63;;
50231;SDS011;36118;56.468;84.952;2022-10-16T21:12:24;33.05;;;16.88;;
50231;SDS011;36118;56.468;84.952;2022-10-16T21:17:27;35.85;;;17.42;;
50231;SDS011;36118;56.468;84.952;2022-10-16T21:22:30;41.33;;;17.60;;
50231;SDS011;36118;56.468;84.952;2022-10-16T21:27:36;64.07;;;34.70;;
50231;SDS011;36118;56.468;84.952;2022-10-16T21:32:39;63.42;;;33.40;;
50231;SDS011;36118;56.468;84.952;2022-10-16T21:37:42;62.80;;;34.30;;
50231;SDS011;36118;56.468;84.952;2022-10-16T21:42:50;63.00;;;33.30;;
50231;SDS011;36118;56.468;84.952;2022-10-16T21:47:52;60.70;;;31.45;;
50231;SDS011;36118;56.468;84.952;2022-10-16T21:53:00;57.33;;;29.45;;
50231;SDS011;36118;56.468;84.952;2022-10-16T21:58:03;53.08;;;27.95;;
50231;SDS011;36118;56.468;84.952;2022-10-16T22:03:06;59.53;;;29.90;;
50231;SDS011;36118;56.468;84.952;2022-10-16T22:08:09;58.17;;;28.95;;
50231;SDS011;36118;56.468;84.952;2022-10-16T22:13:11;60.20;;;28.20;;
50231;SDS011;36118;56.468;84.952;2022-10-16T22:18:14;51.45;;;26.92;;
50231;SDS011;36118;56.468;84.952;2022-10-16T22:23:17;52.05;;;27.20;;
50231;SDS011;36118;56.468;84.952;2022-10-16T22:28:19;51.75;;;27.45;;
50231;SDS011;36118;56.468;84.952;2022-10-16T22:33:22;51.88;;;28.02;;
50231;SDS011;36118;56.468;84.952;2022-10-16T22:38:27;54.25;;;27.98;;
50231;SDS011;36118;56.468;84.952;2022-10-16T22:43:33;60.50;;;28.73;;
50231;SDS011;36118;56.468;84.952;2022-10-16T22:48:37;58.58;;;29.55;;
50231;SDS011;36118;56.468;84.952;2022-10-16T22:53:40;51.40;;;25.77;;
50231;SDS011;36118;56.468;84.952;2022-10-16T22:58:43;44.50;;;19.73;;
50231;SDS011;36118;56.468;84.952;2022-10-16T23:03:46;38.20;;;15.05;;
50231;SDS011;36118;56.468;84.952;2022-10-16T23:08:49;33.65;;;14.55;;
50231;SDS011;36118;56.468;84.952;2022-10-16T23:13:53;32.40;;;13.60;;
50231;SDS011;36118;56.468;84.952;2022-10-16T23:18:56;34.00;;;13.38;;
50231;SDS011;36118;56.468;84.952;2022-10-16T23:23:59;42.20;;;15.52;;
50231;SDS011;36118;56.468;84.952;2022-10-16T23:29:02;35.22;;;15.65;;
50231;SDS011;36118;56.468;84.952;2022-10-16T23:34:05;45.13;;;19.92;;
50231;SDS011;36118;56.468;84.952;2022-10-16T23:39:08;41.92;;;19.92;;
50231;SDS011;36118;56.468;84.952;2022-10-16T23:44:11;43.08;;;20.92;;
50231;SDS011;36118;56.468;84.952;2022-10-16T23:49:13;46.35;;;20.48;;
50231;SDS011;36118;56.468;84.952;2022-10-16T23:54:16;41.47;;;20.20;;
50231;SDS011;36118;56.468;84.952;2022-10-16T23:59:19;42.15;;;20.73;;
